sensor_id;sensor_type;location;lat;lon;timestamp;pressure;altitude;pressure_sealevel;temperature;humidity
71697;BME280;68167;59.120;37.898;2023-05-09T00:00:43;101360.97;;;6.08;44.22
71697;BME280;68167;59.120;37.898;2023-05-09T00:03:10;101351.22;;;6.09;43.38
71697;BME280;68167;59.120;37.898;2023-05-09T00:05:38;101347.50;;;6.03;43.74
71697;BME280;68167;59.120;37.898;2023-05-09T00:08:04;101307.78;;;5.75;43.82
71697;BME280;68167;59.120;37.898;2023-05-09T00:10:32;101351.16;;;6.02;44.22
71697;BME280;68167;59.120;37.898;2023-05-09T00:12:58;101338.78;;;5.88;44.16
71697;BME280;68167;59.120;37.898;2023-05-09T00:15:26;101372.88;;;5.98;44.30
71697;BME280;68167;59.120;37.898;2023-05-09T00:17:54;101353.19;;;5.85;44.20
71697;BME280;68167;59.120;37.898;2023-05-09T00:20:20;101366.88;;;5.89;44.94
71697;BME280;68167;59.120;37.898;2023-05-09T00:22:47;101320.22;;;5.60;44.62
71697;BME280;68167;59.120;37.898;2023-05-09T00:25:13;101320.13;;;5.53;44.94
71697;BME280;68167;59.120;37.898;2023-05-09T00:27:40;101312.84;;;5.41;45.48
71697;BME280;68167;59.120;37.898;2023-05-09T00:30:07;101271.88;;;5.09;46.34
71697;BME280;68167;59.120;37.898;2023-05-09T00:32:34;101348.81;;;5.56;46.17
71697;BME280;68167;59.120;37.898;2023-05-09T00:35:00;101288.53;;;5.09;46.79
71697;BME280;68167;59.120;37.898;2023-05-09T00:37:30;101351.09;;;5.45;46.59
71697;BME280;68167;59.120;37.898;2023-05-09T00:39:56;101333.81;;;5.27;46.97
71697;BME280;68167;59.120;37.898;2023-05-09T00:42:23;101318.91;;;5.20;46.94
71697;BME280;68167;59.120;37.898;2023-05-09T00:44:50;101364.84;;;5.40;46.72
71697;BME280;68167;59.120;37.898;2023-05-09T00:47:16;101349.47;;;5.29;47.52
71697;BME280;68167;59.120;37.898;2023-05-09T00:49:43;101299.53;;;4.98;47.98
71697;BME280;68167;59.120;37.898;2023-05-09T00:52:10;101317.28;;;5.04;47.32
71697;BME280;68167;59.120;37.898;2023-05-09T00:54:36;101344.59;;;5.11;48.25
71697;BME280;68167;59.120;37.898;2023-05-09T00:57:03;101346.22;;;5.12;47.90
71697;BME280;68167;59.120;37.898;2023-05-09T00:59:30;101303.34;;;4.81;48.93
71697;BME280;68167;59.120;37.898;2023-05-09T01:01:56;101322.75;;;4.88;48.83
71697;BME280;68167;59.120;37.898;2023-05-09T01:04:23;101369.34;;;5.10;49.14
71697;BME280;68167;59.120;37.898;2023-05-09T01:15:07;101308.53;;;4.74;48.80
71697;BME280;68167;59.120;37.898;2023-05-09T01:20:54;101310.34;;;4.74;48.99
71697;BME280;68167;59.120;37.898;2023-05-09T01:23:47;101362.50;;;5.01;48.00
71697;BME280;68167;59.120;37.898;2023-05-09T01:31:44;101355.75;;;4.84;49.68
71697;BME280;68167;59.120;37.898;2023-05-09T01:34:12;101344.81;;;4.72;49.96
71697;BME280;68167;59.120;37.898;2023-05-09T01:36:41;101336.81;;;4.66;49.51
71697;BME280;68167;59.120;37.898;2023-05-09T01:39:12;101299.31;;;4.41;50.05
71697;BME280;68167;59.120;37.898;2023-05-09T01:41:39;101341.06;;;4.67;50.28
71697;BME280;68167;59.120;37.898;2023-05-09T01:44:09;101360.75;;;4.79;50.66
71697;BME280;68167;59.120;37.898;2023-05-09T01:46:37;101366.19;;;4.77;50.29
71697;BME280;68167;59.120;37.898;2023-05-09T01:49:06;101260.34;;;4.13;50.32
71697;BME280;68167;59.120;37.898;2023-05-09T01:51:35;101295.41;;;4.37;49.92
71697;BME280;68167;59.120;37.898;2023-05-09T01:54:03;101304.53;;;4.49;49.81
71697;BME280;68167;59.120;37.898;2023-05-09T01:56:31;101334.63;;;4.69;50.51
71697;BME280;68167;59.120;37.898;2023-05-09T01:58:59;101338.38;;;4.75;50.77
71697;BME280;68167;59.120;37.898;2023-05-09T02:01:27;101344.28;;;4.77;50.84
71697;BME280;68167;59.120;37.898;2023-05-09T02:03:55;101349.56;;;4.77;50.22
71697;BME280;68167;59.120;37.898;2023-05-09T02:06:23;101335.16;;;4.64;50.48
71697;BME280;68167;59.120;37.898;2023-05-09T02:08:50;101344.19;;;4.70;50.81
71697;BME280;68167;59.120;37.898;2023-05-09T02:11:17;101370.41;;;4.86;50.49
71697;BME280;68167;59.120;37.898;2023-05-09T02:13:43;101285.84;;;4.36;50.73
71697;BME280;68167;59.120;37.898;2023-05-09T02:16:10;101358.22;;;4.85;50.65
71697;BME280;68167;59.120;37.898;2023-05-09T02:18:37;101308.78;;;4.50;50.99
71697;BME280;68167;59.120;37.898;2023-05-09T02:21:05;101314.13;;;4.56;50.52
71697;BME280;68167;59.120;37.898;2023-05-09T02:23:31;101360.03;;;4.85;51.31
71697;BME280;68167;59.120;37.898;2023-05-09T02:25:58;101297.88;;;4.53;51.42
71697;BME280;68167;59.120;37.898;2023-05-09T02:28:25;101298.13;;;4.58;51.76
71697;BME280;68167;59.120;37.898;2023-05-09T02:30:54;101360.41;;;4.96;51.58
71697;BME280;68167;59.120;37.898;2023-05-09T02:33:24;101342.84;;;4.89;51.54
71697;BME280;68167;59.120;37.898;2023-05-09T02:35:51;101361.31;;;5.04;51.86
71697;BME280;68167;59.120;37.898;2023-05-09T02:38:19;101305.06;;;4.74;51.22
71697;BME280;68167;59.120;37.898;2023-05-09T02:40:46;101318.47;;;4.87;50.86
71697;BME280;68167;59.120;37.898;2023-05-09T02:43:13;101321.38;;;4.92;50.68
71697;BME280;68167;59.120;37.898;2023-05-09T02:45:40;101343.59;;;5.12;51.16
71697;BME280;68167;59.120;37.898;2023-05-09T02:48:07;101319.66;;;4.99;50.90
71697;BME280;68167;59.120;37.898;2023-05-09T02:50:33;101366.59;;;5.33;50.82
71697;BME280;68167;59.120;37.898;2023-05-09T02:53:00;101356.22;;;5.32;50.76
71697;BME280;68167;59.120;37.898;2023-05-09T02:55:26;101318.66;;;5.15;50.44
71697;BME280;68167;59.120;37.898;2023-05-09T02:57:53;101315.25;;;5.21;50.29
71697;BME280;68167;59.120;37.898;2023-05-09T03:00:19;101341.16;;;5.47;50.60
71697;BME280;68167;59.120;37.898;2023-05-09T03:02:47;101361.53;;;5.68;50.04
71697;BME280;68167;59.120;37.898;2023-05-09T03:05:16;101354.31;;;5.76;50.98
71697;BME280;68167;59.120;37.898;2023-05-09T03:07:43;101316.38;;;5.62;50.42
71697;BME280;68167;59.120;37.898;2023-05-09T03:10:10;101357.56;;;5.93;50.51
71697;BME280;68167;59.120;37.898;2023-05-09T03:12:38;101352.09;;;5.94;51.06
71697;BME280;68167;59.120;37.898;2023-05-09T03:15:06;101308.22;;;5.79;51.46
71697;BME280;68167;59.120;37.898;2023-05-09T03:17:33;101336.94;;;6.03;51.28
71697;BME280;68167;59.120;37.898;2023-05-09T03:20:00;101346.19;;;6.14;51.44
71697;BME280;68167;59.120;37.898;2023-05-09T03:22:26;101347.28;;;6.19;50.54
71697;BME280;68167;59.120;37.898;2023-05-09T03:24:58;101305.59;;;6.00;50.75
71697;BME280;68167;59.120;37.898;2023-05-09T03:27:24;101328.25;;;6.09;50.27
71697;BME280;68167;59.120;37.898;2023-05-09T03:29:51;101348.59;;;6.30;50.68
71697;BME280;68167;59.120;37.898;2023-05-09T03:32:19;101353.94;;;6.37;50.61
71697;BME280;68167;59.120;37.898;2023-05-09T03:34:45;101353.44;;;6.48;50.89
71697;BME280;68167;59.120;37.898;2023-05-09T03:37:12;101360.94;;;6.51;50.37
71697;BME280;68167;59.120;37.898;2023-05-09T03:39:40;101333.34;;;6.32;50.26
71697;BME280;68167;59.120;37.898;2023-05-09T03:42:07;101362.84;;;6.57;50.46
71697;BME280;68167;59.120;37.898;2023-05-09T03:44:33;101359.81;;;6.60;50.08
71697;BME280;68167;59.120;37.898;2023-05-09T03:46:59;101325.09;;;6.42;49.90
71697;BME280;68167;59.120;37.898;2023-05-09T03:49:30;101363.91;;;6.63;50.06
71697;BME280;68167;59.120;37.898;2023-05-09T03:51:56;101329.63;;;6.48;50.14
71697;BME280;68167;59.120;37.898;2023-05-09T03:54:25;101356.44;;;6.73;49.25
71697;BME280;68167;59.120;37.898;2023-05-09T03:56:52;101338.50;;;6.68;49.55
71697;BME280;68167;59.120;37.898;2023-05-09T03:59:18;101356.13;;;6.82;49.38
71697;BME280;68167;59.120;37.898;2023-05-09T04:01:45;101374.53;;;6.97;49.35
71697;BME280;68167;59.120;37.898;2023-05-09T04:04:12;101333.66;;;6.72;48.46
71697;BME280;68167;59.120;37.898;2023-05-09T04:06:38;101368.00;;;6.93;49.00
71697;BME280;68167;59.120;37.898;2023-05-09T04:09:07;101345.97;;;6.86;48.82
71697;BME280;68167;59.120;37.898;2023-05-09T04:11:34;101328.97;;;6.74;48.83
71697;BME280;68167;59.120;37.898;2023-05-09T04:14:01;101327.97;;;6.75;48.33
71697;BME280;68167;59.120;37.898;2023-05-09T04:16:34;101287.69;;;6.45;47.96
71697;BME280;68167;59.120;37.898;2023-05-09T04:19:00;101325.28;;;6.68;47.93
71697;BME280;68167;59.120;37.898;2023-05-09T04:21:28;101368.19;;;6.91;47.69
71697;BME280;68167;59.120;37.898;2023-05-09T04:23:58;101322.19;;;6.65;47.84
71697;BME280;68167;59.120;37.898;2023-05-09T04:26:46;101360.50;;;6.97;48.17
71697;BME280;68167;59.120;37.898;2023-05-09T04:29:16;101381.19;;;7.14;48.10
71697;BME280;68167;59.120;37.898;2023-05-09T04:31:48;101279.00;;;6.57;47.85
71697;BME280;68167;59.120;37.898;2023-05-09T04:34:15;101331.56;;;6.95;47.36
71697;BME280;68167;59.120;37.898;2023-05-09T04:36:42;101360.44;;;7.24;47.54
71697;BME280;68167;59.120;37.898;2023-05-09T04:39:08;101372.94;;;7.37;47.45
71697;BME280;68167;59.120;37.898;2023-05-09T04:41:37;101335.38;;;7.27;47.07
71697;BME280;68167;59.120;37.898;2023-05-09T04:44:04;101317.84;;;7.19;46.89
71697;BME280;68167;59.120;37.898;2023-05-09T04:46:30;101352.00;;;7.49;46.43
71697;BME280;68167;59.120;37.898;2023-05-09T04:48:57;101363.28;;;7.64;46.54
71697;BME280;68167;59.120;37.898;2023-05-09T04:51:23;101327.72;;;7.45;46.40
71697;BME280;68167;59.120;37.898;2023-05-09T04:53:50;101367.41;;;7.80;45.78
71697;BME280;68167;59.120;37.898;2023-05-09T04:56:19;101349.47;;;7.75;45.56
71697;BME280;68167;59.120;37.898;2023-05-09T04:58:47;101325.56;;;7.69;45.25
71697;BME280;68167;59.120;37.898;2023-05-09T05:01:14;101351.09;;;7.89;45.31
71697;BME280;68167;59.120;37.898;2023-05-09T05:03:42;101279.06;;;7.53;44.96
71697;BME280;68167;59.120;37.898;2023-05-09T05:06:08;101355.22;;;8.05;44.48
71697;BME280;68167;59.120;37.898;2023-05-09T05:08:36;101375.66;;;8.18;44.56
71697;BME280;68167;59.120;37.898;2023-05-09T05:11:02;101366.69;;;8.25;44.85
71697;BME280;68167;59.120;37.898;2023-05-09T05:13:29;101371.59;;;8.29;44.53
71697;BME280;68167;59.120;37.898;2023-05-09T05:15:58;101362.63;;;8.30;44.02
71697;BME280;68167;59.120;37.898;2023-05-09T05:18:25;101355.09;;;8.40;43.97
71697;BME280;68167;59.120;37.898;2023-05-09T05:20:52;101362.03;;;8.41;43.56
71697;BME280;68167;59.120;37.898;2023-05-09T05:23:18;101310.78;;;8.20;43.32
71697;BME280;68167;59.120;37.898;2023-05-09T05:25:45;101363.66;;;8.62;43.62
71697;BME280;68167;59.120;37.898;2023-05-09T05:28:13;101364.28;;;8.70;43.48
71697;BME280;68167;59.120;37.898;2023-05-09T05:30:40;101361.19;;;8.86;43.40
71697;BME280;68167;59.120;37.898;2023-05-09T05:33:07;101325.66;;;8.87;42.87
71697;BME280;68167;59.120;37.898;2023-05-09T05:35:35;101309.31;;;8.84;42.28
71697;BME280;68167;59.120;37.898;2023-05-09T05:38:02;101326.00;;;9.11;41.97
71697;BME280;68167;59.120;37.898;2023-05-09T05:40:29;101308.06;;;9.06;41.79
71697;BME280;68167;59.120;37.898;2023-05-09T05:42:57;101299.63;;;9.16;41.38
71697;BME280;68167;59.120;37.898;2023-05-09T05:45:24;101350.78;;;9.56;41.67
71697;BME280;68167;59.120;37.898;2023-05-09T05:47:54;101357.28;;;9.67;41.97
71697;BME280;68167;59.120;37.898;2023-05-09T05:50:22;101359.53;;;9.70;40.76
71697;BME280;68167;59.120;37.898;2023-05-09T05:52:49;101314.81;;;9.53;40.55
71697;BME280;68167;59.120;37.898;2023-05-09T05:55:17;101334.50;;;9.77;40.22
71697;BME280;68167;59.120;37.898;2023-05-09T05:57:44;101353.41;;;10.01;40.18
71697;BME280;68167;59.120;37.898;2023-05-09T06:00:14;101351.69;;;10.13;40.17
71697;BME280;68167;59.120;37.898;2023-05-09T06:02:48;101343.66;;;10.26;39.17
71697;BME280;68167;59.120;37.898;2023-05-09T06:05:26;101337.84;;;10.36;39.28
71697;BME280;68167;59.120;37.898;2023-05-09T06:07:52;101349.13;;;10.56;38.70
71697;BME280;68167;59.120;37.898;2023-05-09T06:10:19;101293.78;;;10.40;38.25
71697;BME280;68167;59.120;37.898;2023-05-09T06:12:46;101306.09;;;10.59;37.87
71697;BME280;68167;59.120;37.898;2023-05-09T06:15:13;101338.13;;;10.96;37.67
71697;BME280;68167;59.120;37.898;2023-05-09T06:17:44;101332.84;;;11.07;37.25
71697;BME280;68167;59.120;37.898;2023-05-09T06:20:11;101329.44;;;11.18;36.80
71697;BME280;68167;59.120;37.898;2023-05-09T06:22:37;101342.56;;;11.38;36.93
71697;BME280;68167;59.120;37.898;2023-05-09T06:25:04;101249.97;;;10.97;36.68
71697;BME280;68167;59.120;37.898;2023-05-09T06:27:31;101312.03;;;11.52;35.87
71697;BME280;68167;59.120;37.898;2023-05-09T06:29:57;101331.16;;;11.79;35.56
71697;BME280;68167;59.120;37.898;2023-05-09T06:32:23;101282.75;;;11.64;34.92
71697;BME280;68167;59.120;37.898;2023-05-09T06:34:50;101335.56;;;12.04;34.96
71697;BME280;68167;59.120;37.898;2023-05-09T06:37:17;101289.22;;;11.98;34.54
71697;BME280;68167;59.120;37.898;2023-05-09T06:39:44;101269.97;;;11.96;34.02
71697;BME280;68167;59.120;37.898;2023-05-09T06:42:10;101321.22;;;12.40;34.09
71697;BME280;68167;59.120;37.898;2023-05-09T06:44:38;101280.00;;;12.24;33.71
71697;BME280;68167;59.120;37.898;2023-05-09T06:47:05;101306.00;;;12.52;33.49
71697;BME280;68167;59.120;37.898;2023-05-09T06:49:31;101305.31;;;12.68;33.78
71697;BME280;68167;59.120;37.898;2023-05-09T06:51:58;101310.19;;;12.83;33.20
71697;BME280;68167;59.120;37.898;2023-05-09T06:54:24;101300.91;;;12.85;32.50
71697;BME280;68167;59.120;37.898;2023-05-09T06:56:50;101297.88;;;12.94;32.18
71697;BME280;68167;59.120;37.898;2023-05-09T06:59:17;101286.13;;;12.95;31.78
71697;BME280;68167;59.120;37.898;2023-05-09T07:01:44;101303.63;;;13.14;31.90
71697;BME280;68167;59.120;37.898;2023-05-09T07:04:10;101268.31;;;13.00;32.04
71697;BME280;68167;59.120;37.898;2023-05-09T07:06:37;101240.47;;;12.84;30.91
71697;BME280;68167;59.120;37.898;2023-05-09T07:09:03;101229.19;;;12.94;31.52
71697;BME280;68167;59.120;37.898;2023-05-09T07:11:36;101246.56;;;13.08;30.92
71697;BME280;68167;59.120;37.898;2023-05-09T07:14:03;101251.66;;;13.22;30.81
71697;BME280;68167;59.120;37.898;2023-05-09T07:16:29;101243.06;;;13.19;30.70
71697;BME280;68167;59.120;37.898;2023-05-09T07:18:56;101289.31;;;13.60;30.27
71697;BME280;68167;59.120;37.898;2023-05-09T07:21:22;101264.56;;;13.53;30.92
71697;BME280;68167;59.120;37.898;2023-05-09T07:23:48;101283.09;;;13.71;29.76
71697;BME280;68167;59.120;37.898;2023-05-09T07:26:15;101274.09;;;13.77;30.09
71697;BME280;68167;59.120;37.898;2023-05-09T07:28:41;101272.81;;;13.80;30.01
71697;BME280;68167;59.120;37.898;2023-05-09T07:31:08;101279.72;;;13.93;30.15
71697;BME280;68167;59.120;37.898;2023-05-09T07:33:34;101202.56;;;13.56;29.63
71697;BME280;68167;59.120;37.898;2023-05-09T07:36:01;101234.75;;;13.78;29.23
71697;BME280;68167;59.120;37.898;2023-05-09T07:38:27;101265.69;;;14.02;29.12
71697;BME280;68167;59.120;37.898;2023-05-09T07:40:54;101239.47;;;13.88;29.32
71697;BME280;68167;59.120;37.898;2023-05-09T07:43:20;101270.16;;;14.13;28.88
71697;BME280;68167;59.120;37.898;2023-05-09T07:45:46;101288.19;;;14.18;29.37
71697;BME280;68167;59.120;37.898;2023-05-09T07:48:13;101229.59;;;14.05;29.00
71697;BME280;68167;59.120;37.898;2023-05-09T07:50:39;101255.16;;;14.29;28.82
71697;BME280;68167;59.120;37.898;2023-05-09T07:53:06;101239.06;;;14.29;28.93
71697;BME280;68167;59.120;37.898;2023-05-09T07:55:32;101224.31;;;14.27;29.12
71697;BME280;68167;59.120;37.898;2023-05-09T07:57:58;101247.84;;;14.41;29.21
71697;BME280;68167;59.120;37.898;2023-05-09T08:00:25;101260.88;;;14.55;29.21
71697;BME280;68167;59.120;37.898;2023-05-09T08:02:51;101262.03;;;14.59;28.03
71697;BME280;68167;59.120;37.898;2023-05-09T08:05:17;101234.84;;;14.50;28.30
71697;BME280;68167;59.120;37.898;2023-05-09T08:07:44;101237.47;;;14.67;28.70
71697;BME280;68167;59.120;37.898;2023-05-09T08:10:11;101251.91;;;14.82;28.22
71697;BME280;68167;59.120;37.898;2023-05-09T08:12:38;101245.78;;;14.87;28.26
71697;BME280;68167;59.120;37.898;2023-05-09T08:15:05;101168.09;;;14.48;27.97
71697;BME280;68167;59.120;37.898;2023-05-09T08:17:33;101242.66;;;14.95;27.28
71697;BME280;68167;59.120;37.898;2023-05-09T08:20:00;101190.53;;;14.64;27.33
71697;BME280;68167;59.120;37.898;2023-05-09T08:22:26;101216.66;;;14.96;27.61
71697;BME280;68167;59.120;37.898;2023-05-09T08:24:52;101169.91;;;14.87;27.57
71697;BME280;68167;59.120;37.898;2023-05-09T08:27:19;101109.75;;;14.56;27.23
71697;BME280;68167;59.120;37.898;2023-05-09T08:29:45;101223.03;;;15.38;26.73
71697;BME280;68167;59.120;37.898;2023-05-09T08:32:12;101175.06;;;15.20;26.81
71697;BME280;68167;59.120;37.898;2023-05-09T08:34:39;101213.25;;;15.54;26.55
71697;BME280;68167;59.120;37.898;2023-05-09T08:37:05;101220.59;;;15.59;26.78
71697;BME280;68167;59.120;37.898;2023-05-09T08:39:32;101174.56;;;15.50;26.74
71697;BME280;68167;59.120;37.898;2023-05-09T08:42:00;101216.47;;;15.83;26.70
71697;BME280;68167;59.120;37.898;2023-05-09T08:44:29;101185.31;;;15.82;26.51
71697;BME280;68167;59.120;37.898;2023-05-09T08:47:01;101164.00;;;15.70;25.83
71697;BME280;68167;59.120;37.898;2023-05-09T08:49:28;101165.53;;;15.61;26.48
71697;BME280;68167;59.120;37.898;2023-05-09T08:51:56;101155.63;;;15.62;25.80
71697;BME280;68167;59.120;37.898;2023-05-09T08:54:23;101168.81;;;15.68;25.76
71697;BME280;68167;59.120;37.898;2023-05-09T08:56:50;101195.50;;;15.80;26.26
71697;BME280;68167;59.120;37.898;2023-05-09T08:59:17;101160.38;;;15.55;25.90
71697;BME280;68167;59.120;37.898;2023-05-09T09:01:44;101168.91;;;15.78;25.81
71697;BME280;68167;59.120;37.898;2023-05-09T09:04:11;101115.22;;;15.46;25.38
71697;BME280;68167;59.120;37.898;2023-05-09T09:06:38;101141.81;;;15.80;25.29
71697;BME280;68167;59.120;37.898;2023-05-09T09:09:07;101161.03;;;16.04;25.03
71697;BME280;68167;59.120;37.898;2023-05-09T09:11:35;101144.66;;;16.05;25.13
71697;BME280;68167;59.120;37.898;2023-05-09T09:14:12;101175.44;;;16.35;24.78
71697;BME280;68167;59.120;37.898;2023-05-09T09:16:42;101088.75;;;15.97;24.77
71697;BME280;68167;59.120;37.898;2023-05-09T09:19:12;101130.88;;;16.44;24.39
71697;BME280;68167;59.120;37.898;2023-05-09T09:21:43;101150.38;;;16.71;23.60
71697;BME280;68167;59.120;37.898;2023-05-09T09:24:13;101086.00;;;16.50;23.94
71697;BME280;68167;59.120;37.898;2023-05-09T09:26:46;101149.94;;;17.15;23.98
71697;BME280;68167;59.120;37.898;2023-05-09T09:29:14;101161.00;;;17.29;23.72
71697;BME280;68167;59.120;37.898;2023-05-09T09:31:44;101153.22;;;17.37;23.72
71697;BME280;68167;59.120;37.898;2023-05-09T09:34:12;101121.72;;;17.33;23.38
71697;BME280;68167;59.120;37.898;2023-05-09T09:36:41;101159.69;;;17.72;23.49
71697;BME280;68167;59.120;37.898;2023-05-09T09:39:08;101154.59;;;17.75;22.67
71697;BME280;68167;59.120;37.898;2023-05-09T09:41:38;101144.88;;;17.74;22.69
71697;BME280;68167;59.120;37.898;2023-05-09T09:44:09;101149.72;;;17.72;22.18
71697;BME280;68167;59.120;37.898;2023-05-09T09:46:41;101117.94;;;17.64;22.69
71697;BME280;68167;59.120;37.898;2023-05-09T09:49:15;101156.47;;;17.90;22.77
71697;BME280;68167;59.120;37.898;2023-05-09T09:51:42;101166.44;;;17.69;22.69
71697;BME280;68167;59.120;37.898;2023-05-09T09:54:11;101140.28;;;17.60;22.55
71697;BME280;68167;59.120;37.898;2023-05-09T09:56:48;101113.88;;;17.16;23.76
71697;BME280;68167;59.120;37.898;2023-05-09T09:59:20;101129.22;;;17.05;23.13
71697;BME280;68167;59.120;37.898;2023-05-09T10:01:54;101145.91;;;17.07;23.36
71697;BME280;68167;59.120;37.898;2023-05-09T10:04:21;101124.78;;;16.64;23.48
71697;BME280;68167;59.120;37.898;2023-05-09T10:06:55;101104.41;;;16.68;22.99
71697;BME280;68167;59.120;37.898;2023-05-09T10:09:23;101145.94;;;17.28;22.71
71697;BME280;68167;59.120;37.898;2023-05-09T10:11:51;101079.19;;;17.30;22.72
71697;BME280;68167;59.120;37.898;2023-05-09T10:14:23;101119.31;;;17.67;22.16
71697;BME280;68167;59.120;37.898;2023-05-09T10:16:54;101078.91;;;17.41;22.18
71697;BME280;68167;59.120;37.898;2023-05-09T10:19:21;101098.03;;;17.40;22.19
71697;BME280;68167;59.120;37.898;2023-05-09T10:21:53;101136.25;;;17.42;22.55
71697;BME280;68167;59.120;37.898;2023-05-09T10:24:33;101139.75;;;17.58;22.87
71697;BME280;68167;59.120;37.898;2023-05-09T10:27:10;101120.34;;;17.61;23.10
71697;BME280;68167;59.120;37.898;2023-05-09T10:29:44;101044.47;;;17.38;23.00
71697;BME280;68167;59.120;37.898;2023-05-09T10:32:21;101095.84;;;17.83;22.85
71697;BME280;68167;59.120;37.898;2023-05-09T10:34:52;101074.03;;;17.84;22.80
71697;BME280;68167;59.120;37.898;2023-05-09T10:37:20;101122.09;;;18.36;22.59
71697;BME280;68167;59.120;37.898;2023-05-09T10:39:48;101097.84;;;18.36;21.82
71697;BME280;68167;59.120;37.898;2023-05-09T10:42:18;101107.31;;;18.24;22.10
71697;BME280;68167;59.120;37.898;2023-05-09T10:44:45;101092.84;;;17.99;22.44
71697;BME280;68167;59.120;37.898;2023-05-09T10:47:13;101101.44;;;18.17;22.70
71697;BME280;68167;59.120;37.898;2023-05-09T10:49:42;101104.47;;;18.69;22.86
71697;BME280;68167;59.120;37.898;2023-05-09T10:52:08;101107.16;;;19.08;21.88
71697;BME280;68167;59.120;37.898;2023-05-09T10:54:35;101098.66;;;19.30;21.56
71697;BME280;68167;59.120;37.898;2023-05-09T10:57:04;101098.09;;;19.62;21.23
71697;BME280;68167;59.120;37.898;2023-05-09T10:59:41;101099.38;;;19.70;21.09
71697;BME280;68167;59.120;37.898;2023-05-09T11:02:18;101062.28;;;19.52;21.53
71697;BME280;68167;59.120;37.898;2023-05-09T11:04:45;101089.56;;;19.79;20.86
71697;BME280;68167;59.120;37.898;2023-05-09T11:10:07;101083.22;;;19.94;21.30
71697;BME280;68167;59.120;37.898;2023-05-09T11:12:58;101082.75;;;19.87;20.83
71697;BME280;68167;59.120;37.898;2023-05-09T11:15:26;101047.59;;;19.63;20.39
71697;BME280;68167;59.120;37.898;2023-05-09T11:18:06;101072.59;;;19.73;20.42
71697;BME280;68167;59.120;37.898;2023-05-09T11:20:33;101063.47;;;19.93;19.96
71697;BME280;68167;59.120;37.898;2023-05-09T11:23:03;101069.44;;;20.38;20.01
71697;BME280;68167;59.120;37.898;2023-05-09T11:25:30;101052.59;;;20.65;19.83
71697;BME280;68167;59.120;37.898;2023-05-09T11:27:59;101069.22;;;20.91;19.69
71697;BME280;68167;59.120;37.898;2023-05-09T11:30:42;101061.25;;;20.81;19.53
71697;BME280;68167;59.120;37.898;2023-05-09T11:33:26;101027.53;;;20.35;19.68
71697;BME280;68167;59.120;37.898;2023-05-09T11:36:16;101054.28;;;20.37;19.99
71697;BME280;68167;59.120;37.898;2023-05-09T11:38:46;101057.38;;;20.06;19.95
71697;BME280;68167;59.120;37.898;2023-05-09T11:41:13;101023.72;;;19.70;20.28
71697;BME280;68167;59.120;37.898;2023-05-09T11:43:41;101053.69;;;19.73;20.25
71697;BME280;68167;59.120;37.898;2023-05-09T11:46:09;101019.63;;;19.49;20.40
71697;BME280;68167;59.120;37.898;2023-05-09T11:48:37;101018.13;;;19.37;20.63
71697;BME280;68167;59.120;37.898;2023-05-09T11:51:15;101042.97;;;19.34;20.60
71697;BME280;68167;59.120;37.898;2023-05-09T11:53:44;101040.41;;;19.19;20.45
71697;BME280;68167;59.120;37.898;2023-05-09T11:56:12;101020.41;;;18.86;20.57
71697;BME280;68167;59.120;37.898;2023-05-09T11:58:39;101033.03;;;18.96;20.24
71697;BME280;68167;59.120;37.898;2023-05-09T12:01:07;101007.66;;;18.63;20.44
71697;BME280;68167;59.120;37.898;2023-05-09T12:03:33;101011.97;;;18.64;20.49
71697;BME280;68167;59.120;37.898;2023-05-09T12:06:00;101005.06;;;18.42;20.83
71697;BME280;68167;59.120;37.898;2023-05-09T12:08:27;101030.03;;;18.58;20.94
71697;BME280;68167;59.120;37.898;2023-05-09T12:10:54;100992.00;;;18.16;20.86
71697;BME280;68167;59.120;37.898;2023-05-09T12:13:20;101026.91;;;18.41;21.17
71697;BME280;68167;59.120;37.898;2023-05-09T12:15:48;101031.25;;;18.32;21.10
71697;BME280;68167;59.120;37.898;2023-05-09T12:18:15;101040.16;;;18.32;21.03
71697;BME280;68167;59.120;37.898;2023-05-09T12:20:46;100977.53;;;17.96;21.19
71697;BME280;68167;59.120;37.898;2023-05-09T12:23:13;100995.56;;;18.06;21.13
71697;BME280;68167;59.120;37.898;2023-05-09T12:26:06;101017.78;;;18.32;21.24
71697;BME280;68167;59.120;37.898;2023-05-09T12:28:33;101018.06;;;18.30;21.02
71697;BME280;68167;59.120;37.898;2023-05-09T12:31:00;101019.63;;;18.41;20.73
71697;BME280;68167;59.120;37.898;2023-05-09T12:33:27;101014.78;;;18.38;20.80
71697;BME280;68167;59.120;37.898;2023-05-09T12:36:11;100934.22;;;17.83;21.10
71697;BME280;68167;59.120;37.898;2023-05-09T12:38:51;101018.91;;;18.21;21.10
71697;BME280;68167;59.120;37.898;2023-05-09T12:41:18;101012.50;;;18.12;21.50
71697;BME280;68167;59.120;37.898;2023-05-09T12:43:48;100895.63;;;17.28;21.28
71697;BME280;68167;59.120;37.898;2023-05-09T12:46:18;101014.19;;;17.97;21.06
71697;BME280;68167;59.120;37.898;2023-05-09T12:48:45;100952.03;;;17.63;21.32
71697;BME280;68167;59.120;37.898;2023-05-09T12:51:19;101011.78;;;17.91;21.61
71697;BME280;68167;59.120;37.898;2023-05-09T12:53:46;101006.41;;;17.86;21.20
71697;BME280;68167;59.120;37.898;2023-05-09T12:56:13;101012.59;;;17.86;21.11
71697;BME280;68167;59.120;37.898;2023-05-09T12:59:01;101009.66;;;17.72;21.01
71697;BME280;68167;59.120;37.898;2023-05-09T13:01:28;100994.59;;;17.61;20.68
71697;BME280;68167;59.120;37.898;2023-05-09T13:04:02;101004.56;;;17.61;20.99
71697;BME280;68167;59.120;37.898;2023-05-09T13:06:29;100968.28;;;17.38;20.83
71697;BME280;68167;59.120;37.898;2023-05-09T13:08:59;101012.69;;;17.51;20.79
71697;BME280;68167;59.120;37.898;2023-05-09T13:11:26;100986.84;;;17.34;20.28